sensor_id;sensor_type;location;lat;lon;timestamp;pressure;altitude;pressure_sealevel;temperature;humidity
27685;BME280;46113;50.130;8.526;2023-04-22T00:01:04;98501.19;;;7.51;68.11
27685;BME280;46113;50.130;8.526;2023-04-22T00:03:31;98492.28;;;7.54;68.35
27685;BME280;46113;50.130;8.526;2023-04-22T00:05:59;98493.22;;;7.53;67.87
27685;BME280;46113;50.130;8.526;2023-04-22T00:15:11;98488.72;;;7.55;68.86
27685;BME280;46113;50.130;8.526;2023-04-22T00:17:38;98484.38;;;7.54;68.87
27685;BME280;46113;50.130;8.526;2023-04-22T00:20:06;98481.75;;;7.54;68.04
27685;BME280;46113;50.130;8.526;2023-04-22T00:22:33;98486.34;;;7.50;68.33
27685;BME280;46113;50.130;8.526;2023-04-22T00:25:00;98485.59;;;7.48;68.49
27685;BME280;46113;50.130;8.526;2023-04-22T00:27:27;98484.22;;;7.41;69.14
27685;BME280;46113;50.130;8.526;2023-04-22T00:29:54;98477.94;;;7.43;68.82
27685;BME280;46113;50.130;8.526;2023-04-22T00:32:21;98479.75;;;7.43;69.05
27685;BME280;46113;50.130;8.526;2023-04-22T00:34:48;98491.09;;;7.43;68.71
27685;BME280;46113;50.130;8.526;2023-04-22T00:37:15;98494.50;;;7.46;69.17
27685;BME280;46113;50.130;8.526;2023-04-22T00:39:42;98489.06;;;7.49;69.04
27685;BME280;46113;50.130;8.526;2023-04-22T00:42:09;98494.44;;;7.47;69.08
27685;BME280;46113;50.130;8.526;2023-04-22T00:44:37;98493.56;;;7.47;69.28
27685;BME280;46113;50.130;8.526;2023-04-22T00:47:06;98491.88;;;7.46;69.33
27685;BME280;46113;50.130;8.526;2023-04-22T00:49:34;98488.31;;;7.47;69.00
27685;BME280;46113;50.130;8.526;2023-04-22T00:52:02;98497.75;;;7.35;70.27
27685;BME280;46113;50.130;8.526;2023-04-22T00:54:30;98493.94;;;7.40;70.10
27685;BME280;46113;50.130;8.526;2023-04-22T00:56:57;98493.50;;;7.48;69.05
27685;BME280;46113;50.130;8.526;2023-04-22T00:59:25;98500.53;;;7.48;69.36
27685;BME280;46113;50.130;8.526;2023-04-22T01:01:52;98498.09;;;7.44;69.06
27685;BME280;46113;50.130;8.526;2023-04-22T01:04:20;98493.50;;;7.48;68.63
27685;BME280;46113;50.130;8.526;2023-04-22T01:06:52;98495.03;;;7.36;69.02
27685;BME280;46113;50.130;8.526;2023-04-22T01:09:19;98493.66;;;7.45;69.05
27685;BME280;46113;50.130;8.526;2023-04-22T01:11:46;98491.47;;;7.37;69.58
27685;BME280;46113;50.130;8.526;2023-04-22T01:14:13;98489.50;;;7.41;69.57
27685;BME280;46113;50.130;8.526;2023-04-22T01:16:41;98487.38;;;7.48;68.62
27685;BME280;46113;50.130;8.526;2023-04-22T01:19:10;98491.69;;;7.49;68.68
27685;BME280;46113;50.130;8.526;2023-04-22T01:21:38;98492.72;;;7.46;68.65
27685;BME280;46113;50.130;8.526;2023-04-22T01:24:07;98491.81;;;7.47;69.15
27685;BME280;46113;50.130;8.526;2023-04-22T01:26:35;98489.06;;;7.49;68.65
27685;BME280;46113;50.130;8.526;2023-04-22T01:29:03;98493.06;;;7.40;69.26
27685;BME280;46113;50.130;8.526;2023-04-22T01:31:30;98493.06;;;7.40;68.70
27685;BME280;46113;50.130;8.526;2023-04-22T01:33:58;98493.34;;;7.35;69.69
27685;BME280;46113;50.130;8.526;2023-04-22T01:36:25;98495.69;;;7.40;69.36
27685;BME280;46113;50.130;8.526;2023-04-22T01:38:52;98492.03;;;7.42;69.10
27685;BME280;46113;50.130;8.526;2023-04-22T01:41:19;98496.47;;;7.42;69.12
27685;BME280;46113;50.130;8.526;2023-04-22T01:43:47;98493.84;;;7.42;68.92
27685;BME280;46113;50.130;8.526;2023-04-22T01:49:40;98489.78;;;7.36;68.91
27685;BME280;46113;50.130;8.526;2023-04-22T01:52:07;98494.16;;;7.36;68.84
27685;BME280;46113;50.130;8.526;2023-04-22T01:54:34;98495.69;;;7.40;69.09
27685;BME280;46113;50.130;8.526;2023-04-22T01:57:07;98487.31;;;7.33;69.50
27685;BME280;46113;50.130;8.526;2023-04-22T01:59:36;98486.03;;;7.24;70.07
27685;BME280;46113;50.130;8.526;2023-04-22T02:02:04;98493.69;;;7.29;69.84
27685;BME280;46113;50.130;8.526;2023-04-22T02:04:31;98494.59;;;7.28;70.15
27685;BME280;46113;50.130;8.526;2023-04-22T02:06:58;98494.19;;;7.03;70.49
27685;BME280;46113;50.130;8.526;2023-04-22T02:09:25;98490.78;;;7.17;69.81
27685;BME280;46113;50.130;8.526;2023-04-22T02:11:52;98494.28;;;7.18;69.39
27685;BME280;46113;50.130;8.526;2023-04-22T02:14:20;98489.84;;;7.18;69.36
27685;BME280;46113;50.130;8.526;2023-04-22T02:16:47;98493.09;;;7.24;69.07
27685;BME280;46113;50.130;8.526;2023-04-22T02:19:15;98502.34;;;7.15;69.03
27685;BME280;46113;50.130;8.526;2023-04-22T02:21:42;98496.66;;;7.23;69.20
27685;BME280;46113;50.130;8.526;2023-04-22T02:24:09;98491.91;;;7.29;68.80
27685;BME280;46113;50.130;8.526;2023-04-22T02:26:35;98487.66;;;7.27;69.37
27685;BME280;46113;50.130;8.526;2023-04-22T02:29:03;98492.16;;;7.25;69.11
27685;BME280;46113;50.130;8.526;2023-04-22T02:31:30;98489.78;;;7.20;69.14
27685;BME280;46113;50.130;8.526;2023-04-22T02:33:57;98488.09;;;7.19;68.85
27685;BME280;46113;50.130;8.526;2023-04-22T02:36:24;98503.53;;;7.25;68.79
27685;BME280;46113;50.130;8.526;2023-04-22T02:38:53;98502.34;;;7.31;68.58
27685;BME280;46113;50.130;8.526;2023-04-22T02:41:20;98506.75;;;7.30;68.81
27685;BME280;46113;50.130;8.526;2023-04-22T02:43:47;98500.81;;;7.27;68.75
27685;BME280;46113;50.130;8.526;2023-04-22T02:46:14;98502.84;;;7.22;69.17
27685;BME280;46113;50.130;8.526;2023-04-22T02:48:42;98501.84;;;7.24;69.02
27685;BME280;46113;50.130;8.526;2023-04-22T02:51:09;98502.69;;;7.25;69.26
27685;BME280;46113;50.130;8.526;2023-04-22T02:53:36;98501.66;;;7.27;69.02
27685;BME280;46113;50.130;8.526;2023-04-22T02:56:03;98501.66;;;7.27;69.06
27685;BME280;46113;50.130;8.526;2023-04-22T02:58:31;98496.41;;;7.27;69.59
27685;BME280;46113;50.130;8.526;2023-04-22T03:00:58;98498.84;;;7.30;69.78
27685;BME280;46113;50.130;8.526;2023-04-22T03:03:25;98501.66;;;7.27;70.41
27685;BME280;46113;50.130;8.526;2023-04-22T03:05:52;98496.81;;;7.36;69.60
27685;BME280;46113;50.130;8.526;2023-04-22T03:08:19;98495.38;;;7.30;69.52
27685;BME280;46113;50.130;8.526;2023-04-22T03:10:46;98499.13;;;7.26;69.96
27685;BME280;46113;50.130;8.526;2023-04-22T03:13:13;98488.16;;;7.17;70.05
27685;BME280;46113;50.130;8.526;2023-04-22T03:15:41;98495.13;;;7.18;69.86
27685;BME280;46113;50.130;8.526;2023-04-22T03:18:08;98491.47;;;7.21;69.87
27685;BME280;46113;50.130;8.526;2023-04-22T03:20:35;98492.31;;;7.05;70.52
27685;BME280;46113;50.130;8.526;2023-04-22T03:23:02;98487.88;;;6.90;70.62
27685;BME280;46113;50.130;8.526;2023-04-22T03:25:29;98491.53;;;6.87;71.63
27685;BME280;46113;50.130;8.526;2023-04-22T03:27:56;98485.78;;;6.97;70.31
27685;BME280;46113;50.130;8.526;2023-04-22T03:30:24;98488.44;;;7.13;69.85
27685;BME280;46113;50.130;8.526;2023-04-22T03:32:52;98488.91;;;6.71;71.81
27685;BME280;46113;50.130;8.526;2023-04-22T03:35:23;98484.44;;;7.05;70.87
27685;BME280;46113;50.130;8.526;2023-04-22T03:37:51;98479.19;;;6.39;73.30
27685;BME280;46113;50.130;8.526;2023-04-22T03:40:26;98476.09;;;6.81;71.86
27685;BME280;46113;50.130;8.526;2023-04-22T03:42:53;98478.81;;;6.79;72.38
27685;BME280;46113;50.130;8.526;2023-04-22T03:45:21;98476.78;;;6.85;72.10
27685;BME280;46113;50.130;8.526;2023-04-22T03:48:00;98463.13;;;6.78;73.01
27685;BME280;46113;50.130;8.526;2023-04-22T03:50:35;98478.66;;;6.83;72.45
27685;BME280;46113;50.130;8.526;2023-04-22T03:53:03;98479.50;;;6.67;72.75
27685;BME280;46113;50.130;8.526;2023-04-22T03:55:29;98470.78;;;6.99;71.81
27685;BME280;46113;50.130;8.526;2023-04-22T03:57:57;98483.53;;;7.07;71.74
27685;BME280;46113;50.130;8.526;2023-04-22T04:00:23;98476.97;;;7.14;71.68
27685;BME280;46113;50.130;8.526;2023-04-22T04:03:03;98479.00;;;7.25;71.84
27685;BME280;46113;50.130;8.526;2023-04-22T04:05:31;98483.06;;;7.30;71.60
27685;BME280;46113;50.130;8.526;2023-04-22T04:07:58;98479.69;;;7.28;71.14
27685;BME280;46113;50.130;8.526;2023-04-22T04:10:25;98476.38;;;7.09;71.32
27685;BME280;46113;50.130;8.526;2023-04-22T04:12:53;98476.31;;;7.10;71.07
27685;BME280;46113;50.130;8.526;2023-04-22T04:15:22;98474.84;;;6.88;71.45
27685;BME280;46113;50.130;8.526;2023-04-22T04:17:50;98476.03;;;7.31;71.15
27685;BME280;46113;50.130;8.526;2023-04-22T04:20:18;98474.50;;;7.43;70.76
27685;BME280;46113;50.130;8.526;2023-04-22T04:22:45;98478.06;;;7.26;70.55
27685;BME280;46113;50.130;8.526;2023-04-22T04:25:13;98486.31;;;7.20;70.49
27685;BME280;46113;50.130;8.526;2023-04-22T04:27:43;98476.91;;;7.46;69.41
27685;BME280;46113;50.130;8.526;2023-04-22T04:30:13;98476.69;;;7.51;69.78
27685;BME280;46113;50.130;8.526;2023-04-22T04:32:44;98481.44;;;7.44;70.37
27685;BME280;46113;50.130;8.526;2023-04-22T04:35:14;98482.78;;;7.51;69.68
27685;BME280;46113;50.130;8.526;2023-04-22T04:37:45;98478.59;;;7.63;69.51
27685;BME280;46113;50.130;8.526;2023-04-22T04:40:13;98478.88;;;7.42;70.54
27685;BME280;46113;50.130;8.526;2023-04-22T04:42:45;98480.50;;;7.45;70.44
27685;BME280;46113;50.130;8.526;2023-04-22T04:45:18;98477.78;;;7.47;70.41
27685;BME280;46113;50.130;8.526;2023-04-22T04:47:47;98474.06;;;7.35;70.94
27685;BME280;46113;50.130;8.526;2023-04-22T04:50:21;98477.72;;;7.32;71.62
27685;BME280;46113;50.130;8.526;2023-04-22T04:52:49;98482.81;;;7.35;71.35
27685;BME280;46113;50.130;8.526;2023-04-22T04:55:22;98474.25;;;7.31;71.41
27685;BME280;46113;50.130;8.526;2023-04-22T04:57:49;98475.94;;;7.00;73.05
27685;BME280;46113;50.130;8.526;2023-04-22T05:00:17;98478.84;;;7.58;71.39
27685;BME280;46113;50.130;8.526;2023-04-22T05:02:44;98475.13;;;7.63;70.75
27685;BME280;46113;50.130;8.526;2023-04-22T05:05:12;98472.53;;;7.92;70.57
27685;BME280;46113;50.130;8.526;2023-04-22T05:07:40;98467.94;;;7.81;70.68
27685;BME280;46113;50.130;8.526;2023-04-22T05:10:09;98467.47;;;7.89;71.04
27685;BME280;46113;50.130;8.526;2023-04-22T05:12:36;98470.41;;;8.13;69.95
27685;BME280;46113;50.130;8.526;2023-04-22T05:15:06;98478.59;;;7.63;71.04
27685;BME280;46113;50.130;8.526;2023-04-22T05:17:35;98465.34;;;8.10;69.92
27685;BME280;46113;50.130;8.526;2023-04-22T05:20:03;98465.34;;;8.24;69.50
27685;BME280;46113;50.130;8.526;2023-04-22T05:22:30;98470.13;;;8.32;69.08
27685;BME280;46113;50.130;8.526;2023-04-22T05:24:57;98466.38;;;8.36;69.01
27685;BME280;46113;50.130;8.526;2023-04-22T05:27:24;98465.75;;;8.62;68.19
27685;BME280;46113;50.130;8.526;2023-04-22T05:29:51;98463.38;;;8.28;68.30
27685;BME280;46113;50.130;8.526;2023-04-22T05:32:23;98468.84;;;8.69;68.27
27685;BME280;46113;50.130;8.526;2023-04-22T05:34:51;98472.72;;;8.63;68.38
27685;BME280;46113;50.130;8.526;2023-04-22T05:37:18;98465.78;;;8.17;69.20
27685;BME280;46113;50.130;8.526;2023-04-22T05:39:46;98468.09;;;8.52;68.70
27685;BME280;46113;50.130;8.526;2023-04-22T05:42:13;98469.78;;;8.39;69.72
27685;BME280;46113;50.130;8.526;2023-04-22T05:44:41;98474.00;;;8.12;69.95
27685;BME280;46113;50.130;8.526;2023-04-22T05:47:08;98468.97;;;8.07;69.63
27685;BME280;46113;50.130;8.526;2023-04-22T05:49:35;98466.84;;;8.29;69.61
27685;BME280;46113;50.130;8.526;2023-04-22T05:52:21;98458.75;;;8.32;68.67
27685;BME280;46113;50.130;8.526;2023-04-22T05:54:56;98456.41;;;8.71;68.20
27685;BME280;46113;50.130;8.526;2023-04-22T05:57:23;98459.38;;;8.94;67.57
27685;BME280;46113;50.130;8.526;2023-04-22T05:59:50;98446.53;;;9.02;64.74
27685;BME280;46113;50.130;8.526;2023-04-22T06:02:17;98450.53;;;8.95;65.58
27685;BME280;46113;50.130;8.526;2023-04-22T06:04:44;98441.81;;;9.07;63.34
27685;BME280;46113;50.130;8.526;2023-04-22T06:07:12;98447.63;;;9.12;64.17
27685;BME280;46113;50.130;8.526;2023-04-22T06:09:39;98448.28;;;9.16;65.14
27685;BME280;46113;50.130;8.526;2023-04-22T06:12:06;98450.63;;;9.21;64.76
27685;BME280;46113;50.130;8.526;2023-04-22T06:14:34;98460.38;;;9.33;63.66
27685;BME280;46113;50.130;8.526;2023-04-22T06:17:02;98454.44;;;9.70;61.31
27685;BME280;46113;50.130;8.526;2023-04-22T06:19:29;98453.34;;;10.00;58.91
27685;BME280;46113;50.130;8.526;2023-04-22T06:21:56;98465.41;;;10.30;59.39
27685;BME280;46113;50.130;8.526;2023-04-22T06:24:23;98466.13;;;10.45;58.30
27685;BME280;46113;50.130;8.526;2023-04-22T06:26:52;98473.06;;;10.72;55.88
27685;BME280;46113;50.130;8.526;2023-04-22T06:29:19;98464.09;;;10.62;55.84
27685;BME280;46113;50.130;8.526;2023-04-22T06:31:46;98472.19;;;9.95;56.34
27685;BME280;46113;50.130;8.526;2023-04-22T06:34:22;98477.84;;;10.67;55.60
27685;BME280;46113;50.130;8.526;2023-04-22T06:36:50;98476.41;;;11.00;54.38
27685;BME280;46113;50.130;8.526;2023-04-22T06:39:18;98475.69;;;11.23;53.75
27685;BME280;46113;50.130;8.526;2023-04-22T06:42:04;98483.63;;;11.23;54.27
27685;BME280;46113;50.130;8.526;2023-04-22T06:44:56;98476.66;;;11.46;52.27
27685;BME280;46113;50.130;8.526;2023-04-22T06:47:41;98476.16;;;11.17;52.86
27685;BME280;46113;50.130;8.526;2023-04-22T06:50:12;98478.03;;;11.27;53.14
27685;BME280;46113;50.130;8.526;2023-04-22T06:52:46;98471.44;;;11.69;53.32
27685;BME280;46113;50.130;8.526;2023-04-22T06:55:13;98468.66;;;11.35;53.36
27685;BME280;46113;50.130;8.526;2023-04-22T06:57:40;98471.28;;;11.95;51.64
27685;BME280;46113;50.130;8.526;2023-04-22T07:00:07;98471.75;;;12.00;51.70
27685;BME280;46113;50.130;8.526;2023-04-22T07:02:37;98472.88;;;12.09;50.38
27685;BME280;46113;50.130;8.526;2023-04-22T07:05:05;98476.50;;;11.72;51.75
27685;BME280;46113;50.130;8.526;2023-04-22T07:07:32;98465.63;;;11.52;51.24
27685;BME280;46113;50.130;8.526;2023-04-22T07:10:00;98472.34;;;12.28;50.52
27685;BME280;46113;50.130;8.526;2023-04-22T07:12:33;98472.81;;;12.45;49.99
27685;BME280;46113;50.130;8.526;2023-04-22T07:15:00;98472.94;;;12.32;50.14
27685;BME280;46113;50.130;8.526;2023-04-22T07:17:27;98472.94;;;12.66;49.21
27685;BME280;46113;50.130;8.526;2023-04-22T07:19:53;98471.13;;;12.67;49.96
27685;BME280;46113;50.130;8.526;2023-04-22T07:22:24;98476.28;;;12.80;48.84
27685;BME280;46113;50.130;8.526;2023-04-22T07:24:51;98473.16;;;12.75;49.05
27685;BME280;46113;50.130;8.526;2023-04-22T07:27:18;98465.09;;;13.32;48.08
27685;BME280;46113;50.130;8.526;2023-04-22T07:29:45;98462.38;;;13.55;47.46
27685;BME280;46113;50.130;8.526;2023-04-22T07:32:13;98453.13;;;13.37;47.90
27685;BME280;46113;50.130;8.526;2023-04-22T07:34:41;98454.56;;;12.86;48.27
27685;BME280;46113;50.130;8.526;2023-04-22T07:37:08;98463.06;;;13.35;48.50
27685;BME280;46113;50.130;8.526;2023-04-22T07:39:35;98464.91;;;13.23;48.23
27685;BME280;46113;50.130;8.526;2023-04-22T07:42:02;98450.63;;;13.57;46.89
27685;BME280;46113;50.130;8.526;2023-04-22T07:44:29;98452.72;;;13.75;46.83
27685;BME280;46113;50.130;8.526;2023-04-22T07:46:56;98441.63;;;13.70;47.52
27685;BME280;46113;50.130;8.526;2023-04-22T07:49:24;98451.06;;;13.41;47.13
27685;BME280;46113;50.130;8.526;2023-04-22T07:51:51;98446.25;;;13.68;46.51
27685;BME280;46113;50.130;8.526;2023-04-22T07:54:18;98443.84;;;13.32;46.77
27685;BME280;46113;50.130;8.526;2023-04-22T07:56:45;98438.06;;;13.26;47.39
27685;BME280;46113;50.130;8.526;2023-04-22T07:59:12;98439.03;;;13.58;47.55
27685;BME280;46113;50.130;8.526;2023-04-22T08:01:39;98431.41;;;13.86;45.75
27685;BME280;46113;50.130;8.526;2023-04-22T08:04:06;98431.13;;;13.89;46.32
27685;BME280;46113;50.130;8.526;2023-04-22T08:06:33;98432.44;;;13.74;46.23
27685;BME280;46113;50.130;8.526;2023-04-22T08:09:01;98439.56;;;14.16;45.61
27685;BME280;46113;50.130;8.526;2023-04-22T08:11:27;98437.09;;;14.65;44.59
27685;BME280;46113;50.130;8.526;2023-04-22T08:13:54;98445.81;;;14.67;44.81
27685;BME280;46113;50.130;8.526;2023-04-22T08:16:21;98445.66;;;13.85;45.81
27685;BME280;46113;50.130;8.526;2023-04-22T08:18:48;98446.69;;;14.78;44.15
27685;BME280;46113;50.130;8.526;2023-04-22T08:21:15;98437.97;;;15.56;43.76
27685;BME280;46113;50.130;8.526;2023-04-22T08:23:42;98435.44;;;15.55;43.00
27685;BME280;46113;50.130;8.526;2023-04-22T08:26:09;98439.19;;;15.82;43.54
27685;BME280;46113;50.130;8.526;2023-04-22T08:28:40;98429.41;;;15.13;44.77
27685;BME280;46113;50.130;8.526;2023-04-22T08:31:08;98432.75;;;15.55;42.89
27685;BME280;46113;50.130;8.526;2023-04-22T08:33:36;98435.38;;;16.04;41.62
27685;BME280;46113;50.130;8.526;2023-04-22T08:36:03;98434.13;;;15.00;43.94
27685;BME280;46113;50.130;8.526;2023-04-22T08:38:30;98430.66;;;15.68;43.15
27685;BME280;46113;50.130;8.526;2023-04-22T08:40:57;98432.06;;;15.53;43.06
27685;BME280;46113;50.130;8.526;2023-04-22T08:43:25;98432.44;;;15.97;43.40
27685;BME280;46113;50.130;8.526;2023-04-22T08:45:52;98426.91;;;16.19;43.44
27685;BME280;46113;50.130;8.526;2023-04-22T08:48:19;98427.56;;;16.31;41.86
27685;BME280;46113;50.130;8.526;2023-04-22T08:50:46;98419.31;;;16.90;41.07
27685;BME280;46113;50.130;8.526;2023-04-22T08:53:14;98423.81;;;17.44;40.35
27685;BME280;46113;50.130;8.526;2023-04-22T08:55:44;98428.88;;;16.54;39.55
27685;BME280;46113;50.130;8.526;2023-04-22T08:58:11;98425.72;;;16.97;39.78
27685;BME280;46113;50.130;8.526;2023-04-22T09:00:41;98427.69;;;16.77;39.62
27685;BME280;46113;50.130;8.526;2023-04-22T09:03:08;98419.22;;;17.00;39.91
27685;BME280;46113;50.130;8.526;2023-04-22T09:05:37;98421.13;;;17.44;38.68
27685;BME280;46113;50.130;8.526;2023-04-22T09:08:06;98416.72;;;17.97;38.10
27685;BME280;46113;50.130;8.526;2023-04-22T09:10:37;98421.97;;;17.81;39.44
27685;BME280;46113;50.130;8.526;2023-04-22T09:13:05;98415.19;;;17.32;39.04
27685;BME280;46113;50.130;8.526;2023-04-22T09:15:32;98403.16;;;18.25;37.16
27685;BME280;46113;50.130;8.526;2023-04-22T09:18:01;98413.44;;;17.41;38.32
27685;BME280;46113;50.130;8.526;2023-04-22T09:20:31;98413.91;;;17.54;39.70
27685;BME280;46113;50.130;8.526;2023-04-22T09:23:01;98397.69;;;16.83;39.69
27685;BME280;46113;50.130;8.526;2023-04-22T09:25:32;98401.38;;;17.00;39.92
27685;BME280;46113;50.130;8.526;2023-04-22T09:27:59;98403.28;;;17.44;39.13
27685;BME280;46113;50.130;8.526;2023-04-22T09:30:31;98404.34;;;17.15;39.40
27685;BME280;46113;50.130;8.526;2023-04-22T09:33:03;98399.75;;;17.44;38.09
27685;BME280;46113;50.130;8.526;2023-04-22T09:37:59;98410.72;;;16.86;38.84
27685;BME280;46113;50.130;8.526;2023-04-22T09:40:27;98396.84;;;16.82;38.76
27685;BME280;46113;50.130;8.526;2023-04-22T09:42:55;98397.03;;;17.17;39.98
27685;BME280;46113;50.130;8.526;2023-04-22T09:45:35;98401.19;;;16.84;39.06
27685;BME280;46113;50.130;8.526;2023-04-22T09:50:39;98399.28;;;16.76;38.31
27685;BME280;46113;50.130;8.526;2023-04-22T09:53:07;98401.69;;;17.15;38.10
27685;BME280;46113;50.130;8.526;2023-04-22T09:55:37;98401.53;;;17.53;37.39
27685;BME280;46113;50.130;8.526;2023-04-22T09:58:09;98395.88;;;17.38;38.19
27685;BME280;46113;50.130;8.526;2023-04-22T10:00:43;98392.75;;;17.25;36.61
27685;BME280;46113;50.130;8.526;2023-04-22T10:03:10;98397.22;;;17.79;38.45
27685;BME280;46113;50.130;8.526;2023-04-22T10:05:37;98388.59;;;17.48;36.32
27685;BME280;46113;50.130;8.526;2023-04-22T10:08:05;98378.31;;;17.80;36.47
27685;BME280;46113;50.130;8.526;2023-04-22T10:10:33;98374.28;;;17.76;36.99
27685;BME280;46113;50.130;8.526;2023-04-22T10:13:00;98372.34;;;18.21;35.91
27685;BME280;46113;50.130;8.526;2023-04-22T10:15:35;98376.59;;;17.71;36.01
27685;BME280;46113;50.130;8.526;2023-04-22T10:18:05;98372.63;;;17.12;36.32
27685;BME280;46113;50.130;8.526;2023-04-22T10:20:35;98371.50;;;17.86;37.69
27685;BME280;46113;50.130;8.526;2023-04-22T10:23:04;98362.81;;;17.57;35.61
27685;BME280;46113;50.130;8.526;2023-04-22T10:25:31;98372.81;;;17.19;38.64
27685;BME280;46113;50.130;8.526;2023-04-22T10:28:03;98370.78;;;18.37;37.46
27685;BME280;46113;50.130;8.526;2023-04-22T10:30:36;98377.38;;;17.90;36.95
27685;BME280;46113;50.130;8.526;2023-04-22T10:36:11;98377.13;;;18.36;35.44
27685;BME280;46113;50.130;8.526;2023-04-22T10:41:30;98376.81;;;18.39;34.62
27685;BME280;46113;50.130;8.526;2023-04-22T10:44:04;98369.25;;;18.86;33.96
27685;BME280;46113;50.130;8.526;2023-04-22T10:49:18;98370.22;;;18.68;34.38
27685;BME280;46113;50.130;8.526;2023-04-22T10:51:56;98371.78;;;18.36;35.65
27685;BME280;46113;50.130;8.526;2023-04-22T10:57:04;98368.69;;;18.65;36.61
27685;BME280;46113;50.130;8.526;2023-04-22T10:59:56;98370.78;;;17.76;37.75
27685;BME280;46113;50.130;8.526;2023-04-22T11:02:23;98366.16;;;18.56;35.74
27685;BME280;46113;50.130;8.526;2023-04-22T11:05:21;98360.44;;;18.07;36.20
27685;BME280;46113;50.130;8.526;2023-04-22T11:07:59;98360.88;;;18.89;35.48
27685;BME280;46113;50.130;8.526;2023-04-22T11:10:33;98356.53;;;18.96;34.50
27685;BME280;46113;50.130;8.526;2023-04-22T11:13:01;98349.50;;;18.87;35.12
27685;BME280;46113;50.130;8.526;2023-04-22T11:15:29;98358.53;;;18.94;34.04
27685;BME280;46113;50.130;8.526;2023-04-22T11:17:59;98353.09;;;18.52;35.90
27685;BME280;46113;50.130;8.526;2023-04-22T11:20:26;98346.88;;;18.44;36.09
27685;BME280;46113;50.130;8.526;2023-04-22T11:22:55;98353.97;;;18.26;36.50
27685;BME280;46113;50.130;8.526;2023-04-22T11:25:23;98354.00;;;18.78;35.64
27685;BME280;46113;50.130;8.526;2023-04-22T11:27:51;98353.03;;;18.87;35.69
27685;BME280;46113;50.130;8.526;2023-04-22T11:30:23;98349.66;;;19.77;32.31
27685;BME280;46113;50.130;8.526;2023-04-22T11:32:59;98336.97;;;19.45;33.13
27685;BME280;46113;50.130;8.526;2023-04-22T11:35:51;98344.94;;;18.62;35.40
27685;BME280;46113;50.130;8.526;2023-04-22T11:38:30;98342.78;;;18.83;34.11
27685;BME280;46113;50.130;8.526;2023-04-22T11:40:57;98345.09;;;18.69;33.66
27685;BME280;46113;50.130;8.526;2023-04-22T11:43:24;98340.00;;;18.41;34.60
27685;BME280;46113;50.130;8.526;2023-04-22T11:45:54;98335.44;;;18.93;34.11
27685;BME280;46113;50.130;8.526;2023-04-22T11:48:21;98334.97;;;19.14;34.71
27685;BME280;46113;50.130;8.526;2023-04-22T11:50:48;98328.72;;;18.80;34.55
27685;BME280;46113;50.130;8.526;2023-04-22T11:53:19;98333.66;;;19.18;35.36
27685;BME280;46113;50.130;8.526;2023-04-22T11:55:50;98321.47;;;18.13;35.88
27685;BME280;46113;50.130;8.526;2023-04-22T11:58:25;98322.47;;;18.55;36.06
27685;BME280;46113;50.130;8.526;2023-04-22T12:00:54;98316.78;;;18.50;35.23
27685;BME280;46113;50.130;8.526;2023-04-22T12:03:24;98312.19;;;19.27;34.21
27685;BME280;46113;50.130;8.526;2023-04-22T12:05:55;98318.31;;;18.69;37.53
27685;BME280;46113;50.130;8.526;2023-04-22T12:08:33;98315.31;;;18.72;34.90
27685;BME280;46113;50.130;8.526;2023-04-22T12:11:11;98314.00;;;19.01;33.88
27685;BME280;46113;50.130;8.526;2023-04-22T12:13:43;98305.16;;;19.26;34.76
27685;BME280;46113;50.130;8.526;2023-04-22T12:18:51;98312.81;;;18.96;34.28
27685;BME280;46113;50.130;8.526;2023-04-22T12:21:21;98302.16;;;19.21;34.93
27685;BME280;46113;50.130;8.526;2023-04-22T12:23:51;98300.78;;;19.08;35.57
27685;BME280;46113;50.130;8.526;2023-04-22T12:26:22;98296.09;;;19.35;34.34
27685;BME280;46113;50.130;8.526;2023-04-22T12:28:53;98294.44;;;18.92;34.27
27685;BME280;46113;50.130;8.526;2023-04-22T12:31:24;98287.56;;;18.90;35.05
27685;BME280;46113;50.130;8.526;2023-04-22T12:33:51;98290.59;;;18.27;35.87
27685;BME280;46113;50.130;8.526;2023-04-22T12:36:20;98281.66;;;18.53;35.76
27685;BME280;46113;50.130;8.526;2023-04-22T12:38:47;98288.06;;;18.93;34.61
27685;BME280;46113;50.130;8.526;2023-04-22T12:41:20;98288.94;;;19.11;34.85
27685;BME280;46113;50.130;8.526;2023-04-22T12:43:49;98283.19;;;19.47;34.64
27685;BME280;46113;50.130;8.526;2023-04-22T12:46:18;98288.88;;;19.44;34.74
27685;BME280;46113;50.130;8.526;2023-04-22T12:48:45;98278.38;;;19.17;34.72
27685;BME280;46113;50.130;8.526;2023-04-22T12:51:12;98282.03;;;19.00;34.92
27685;BME280;46113;50.130;8.526;2023-04-22T12:53:40;98284.72;;;19.08;34.75
27685;BME280;46113;50.130;8.526;2023-04-22T12:56:11;98281.72;;;19.11;35.81
27685;BME280;46113;50.130;8.526;2023-04-22T12:58:43;98283.22;;;19.14;35.08
27685;BME280;46113;50.130;8.526;2023-04-22T13:01:16;98274.94;;;19.65;34.19
27685;BME280;46113;50.130;8.526;2023-04-22T13:03:47;98282.66;;;19.68;34.09
27685;BME280;46113;50.130;8.526;2023-04-22T13:06:19;98292.22;;;19.54;34.18
27685;BME280;46113;50.130;8.526;2023-04-22T13:08:51;98280.69;;;19.12;35.28
27685;BME280;46113;50.130;8.526;2023-04-22T13:11:21;98282.88;;;19.17;34.14
27685;BME280;46113;50.130;8.526;2023-04-22T13:13:48;98277.69;;;19.15;34.92
27685;BME280;46113;50.130;8.526;2023-04-22T13:16:20;98275.88;;;19.81;34.21
27685;BME280;46113;50.130;8.526;2023-04-22T13:18:47;98266.56;;;19.52;33.85
27685;BME280;46113;50.130;8.526;2023-04-22T13:21:14;98268.63;;;19.33;34.95
27685;BME280;46113;50.130;8.526;2023-04-22T13:23:41;98272.47;;;19.47;34.79
27685;BME280;46113;50.130;8.526;2023-04-22T13:26:10;98265.31;;;19.23;34.22
27685;BME280;46113;50.130;8.526;2023-04-22T13:28:42;98260.19;;;19.61;33.79
27685;BME280;46113;50.130;8.526;2023-04-22T13:31:53;98258.25;;;18.88;36.04
27685;BME280;46113;50.130;8.526;2023-04-22T13:34:33;98259.25;;;18.62;35.80
27685;BME280;46113;50.130;8.526;2023-04-22T13:37:03;98255.38;;;18.57;37.17
27685;BME280;46113;50.130;8.526;2023-04-22T13:39:37;98263.44;;;18.65;37.32
27685;BME280;46113;50.130;8.526;2023-04-22T13:42:15;98261.44;;;18.92;37.49
27685;BME280;46113;50.130;8.526;2023-04-22T13:44:43;98252.03;;;18.46;35.23